createdAt,value
2016-09-29T00:00:09.315Z,1013.41
2016-09-29T00:01:09.306Z,1013.42
2016-09-29T00:02:09.299Z,1013.35
2016-09-29T00:03:09.291Z,1013.34
2016-09-29T00:04:09.284Z,1013.32
2016-09-29T00:05:09.274Z,1013.28
2016-09-29T00:06:09.265Z,1013.33
2016-09-29T00:07:09.258Z,1013.28
2016-09-29T00:08:09.248Z,1013.31
2016-09-29T00:09:09.239Z,1013.26
2016-09-29T00:10:09.230Z,1013.27
2016-09-29T00:11:09.223Z,1013.27
2016-09-29T00:12:09.213Z,1013.28
2016-09-29T00:13:09.205Z,1013.28
2016-09-29T00:14:09.199Z,1013.27
2016-09-29T00:15:09.189Z,1013.25
2016-09-29T00:16:09.179Z,1013.24
2016-09-29T00:17:09.171Z,1013.24
2016-09-29T00:18:09.163Z,1013.27
2016-09-29T00:19:09.161Z,1013.29
2016-09-29T00:20:09.146Z,1013.25
2016-09-29T00:21:09.143Z,1013.24
2016-09-29T00:22:09.130Z,1013.23
2016-09-29T00:23:09.121Z,1013.27
2016-09-29T00:24:09.112Z,1013.2
2016-09-29T00:25:09.105Z,1013.25
2016-09-29T00:26:09.093Z,1013.26
2016-09-29T00:27:09.089Z,1013.26
2016-09-29T00:28:09.078Z,1013.21
2016-09-29T00:29:09.070Z,1013.24
2016-09-29T00:30:09.060Z,1013.22
2016-09-29T00:31:09.052Z,1013.28
2016-09-29T00:32:09.045Z,1013.27
2016-09-29T00:33:09.036Z,1013.23
2016-09-29T00:34:09.027Z,1013.21
2016-09-29T00:35:09.018Z,1013.19
2016-09-29T00:36:09.009Z,1013.17
2016-09-29T00:37:09.001Z,1013.16
2016-09-29T00:38:08.992Z,1013.14
2016-09-29T00:39:08.982Z,1013.14
2016-09-29T00:40:08.980Z,1013.15
2016-09-29T00:41:08.966Z,1013.16
2016-09-29T00:42:08.958Z,1013.13
2016-09-29T00:43:08.952Z,1013.14
2016-09-29T00:44:08.942Z,1013.12
2016-09-29T00:45:08.933Z,1013.14
2016-09-29T00:46:08.925Z,1013.13
2016-09-29T00:47:08.914Z,1013.04
2016-09-29T00:48:08.908Z,1013.06
2016-09-29T00:49:08.898Z,1013.08
2016-09-29T00:50:08.888Z,1013.04
2016-09-29T00:51:08.881Z,1013.06
2016-09-29T00:52:08.872Z,1013.07
2016-09-29T00:53:08.862Z,1013.06
2016-09-29T00:54:08.856Z,1013.07
2016-09-29T00:55:08.846Z,1013.08
2016-09-29T00:56:08.837Z,1013.09
2016-09-29T00:57:08.827Z,1013.04
2016-09-29T00:58:08.819Z,1013
2016-09-29T00:59:08.812Z,1013.09
2016-09-29T01:00:08.802Z,1013.08
2016-09-29T01:01:08.794Z,1012.99
2016-09-29T01:02:08.785Z,1012.99
2016-09-29T01:03:08.775Z,1012.95
2016-09-29T01:04:08.766Z,1012.92
2016-09-29T01:05:08.761Z,1012.91
2016-09-29T01:06:08.952Z,1012.86
2016-09-29T01:07:08.741Z,1012.88
2016-09-29T01:08:08.756Z,1012.83
2016-09-29T01:09:08.724Z,1012.81
2016-09-29T01:10:08.715Z,1012.75
2016-09-29T01:11:08.705Z,1012.77
2016-09-29T01:12:08.697Z,1012.72
2016-09-29T01:13:08.688Z,1012.66
2016-09-29T01:14:08.677Z,1012.65
2016-09-29T01:15:08.669Z,1012.68
2016-09-29T01:16:08.659Z,1012.67
2016-09-29T01:17:08.652Z,1012.63
2016-09-29T01:18:08.643Z,1012.62
2016-09-29T01:19:08.634Z,1012.56
2016-09-29T01:20:08.626Z,1012.56
2016-09-29T01:21:08.615Z,1012.61
2016-09-29T01:22:08.605Z,1012.56
2016-09-29T01:23:08.597Z,1012.57
2016-09-29T01:24:08.639Z,1012.57
2016-09-29T01:25:08.581Z,1012.56
2016-09-29T01:26:08.569Z,1012.51
2016-09-29T01:27:08.561Z,1012.52
2016-09-29T01:28:08.553Z,1012.5
2016-09-29T01:29:08.545Z,1012.47
2016-09-29T01:30:08.534Z,1012.5
2016-09-29T01:31:08.526Z,1012.49
2016-09-29T01:32:08.517Z,1012.45
2016-09-29T01:33:08.514Z,1012.43
2016-09-29T01:34:08.502Z,1012.4
2016-09-29T01:35:08.492Z,1012.34
2016-09-29T01:36:08.487Z,1012.31
2016-09-29T01:37:08.473Z,1012.29
2016-09-29T01:38:08.464Z,1012.31
2016-09-29T01:39:08.455Z,1012.32
2016-09-29T01:40:08.447Z,1012.24
2016-09-29T01:41:08.437Z,1012.27
2016-09-29T01:42:08.428Z,1012.2
2016-09-29T01:43:08.420Z,1012.19
2016-09-29T01:44:08.408Z,1012.23
2016-09-29T01:45:08.400Z,1012.12
2016-09-29T01:46:08.392Z,1012.12
2016-09-29T01:47:08.382Z,1012.1
2016-09-29T01:48:08.374Z,1012.12
2016-09-29T01:49:08.364Z,1012.11
2016-09-29T01:50:08.355Z,1012.09
2016-09-29T01:51:08.345Z,1012.14
2016-09-29T01:52:08.336Z,1012.11
2016-09-29T01:53:08.326Z,1012.09
2016-09-29T01:54:08.318Z,1012.14
2016-09-29T01:55:08.308Z,1012.14
2016-09-29T01:56:08.302Z,1012.12
2016-09-29T01:57:08.291Z,1012.19
2016-09-29T01:58:08.285Z,1012.13
2016-09-29T01:59:08.272Z,1012.11
2016-09-29T02:00:08.264Z,1012.1
2016-09-29T02:01:08.261Z,1012.11
2016-09-29T02:02:08.247Z,1012.09
2016-09-29T02:03:08.235Z,1012.11
2016-09-29T02:04:08.227Z,1012.1
2016-09-29T02:05:08.217Z,1012.12
2016-09-29T02:06:08.206Z,1012.14
2016-09-29T02:07:08.212Z,1012.11
2016-09-29T02:08:08.191Z,1012.09
2016-09-29T02:09:08.179Z,1012.06
2016-09-29T02:10:08.172Z,1012.15
2016-09-29T02:11:08.163Z,1012.17
2016-09-29T02:12:08.154Z,1012.08
2016-09-29T02:13:08.144Z,1012.01
2016-09-29T02:14:08.135Z,1012.03
2016-09-29T02:15:08.127Z,1011.98
2016-09-29T02:16:08.116Z,1011.96
2016-09-29T02:17:08.108Z,1011.94
2016-09-29T02:18:08.099Z,1011.94
2016-09-29T02:19:08.089Z,1011.84
2016-09-29T02:20:08.080Z,1011.85
2016-09-29T02:21:08.072Z,1011.87
2016-09-29T02:22:08.063Z,1011.9
2016-09-29T02:23:08.054Z,1011.81
2016-09-29T02:24:08.042Z,1011.86
2016-09-29T02:25:08.034Z,1011.76
2016-09-29T02:26:08.026Z,1011.88
2016-09-29T02:27:08.015Z,1011.72
2016-09-29T02:28:08.011Z,1011.73
2016-09-29T02:29:07.998Z,1011.68
2016-09-29T02:30:07.999Z,1011.72
2016-09-29T02:31:07.980Z,1011.65
2016-09-29T02:32:07.969Z,1011.68
2016-09-29T02:33:07.962Z,1011.61
2016-09-29T02:34:07.953Z,1011.54
2016-09-29T02:35:07.943Z,1011.56
2016-09-29T02:36:07.938Z,1011.6
2016-09-29T02:37:07.925Z,1011.58
2016-09-29T02:38:07.916Z,1011.59
2016-09-29T02:39:07.910Z,1011.63
2016-09-29T02:40:07.901Z,1011.65
2016-09-29T02:41:07.903Z,1011.62
2016-09-29T02:42:07.879Z,1011.56
2016-09-29T02:43:07.867Z,1011.62
2016-09-29T02:44:07.861Z,1011.62
2016-09-29T02:45:07.852Z,1011.65
2016-09-29T02:46:07.839Z,1011.56
2016-09-29T02:47:07.837Z,1011.55
2016-09-29T02:48:07.822Z,1011.51
2016-09-29T02:49:08.015Z,1011.53
2016-09-29T02:50:07.803Z,1011.4
2016-09-29T02:51:07.794Z,1011.43
2016-09-29T02:52:07.785Z,1011.39
2016-09-29T02:53:07.776Z,1011.36
2016-09-29T02:54:07.772Z,1011.41
2016-09-29T02:55:07.759Z,1011.35
2016-09-29T02:56:07.748Z,1011.38
2016-09-29T02:57:07.737Z,1011.41
2016-09-29T02:58:07.729Z,1011.4
2016-09-29T02:59:07.719Z,1011.45
2016-09-29T03:00:07.709Z,1011.4
2016-09-29T03:01:07.699Z,1011.5
2016-09-29T03:02:07.691Z,1011.49
2016-09-29T03:03:07.692Z,1011.44
2016-09-29T03:04:07.677Z,1011.46
2016-09-29T03:05:07.664Z,1011.45
2016-09-29T03:06:07.653Z,1011.39
2016-09-29T03:07:07.643Z,1011.39
2016-09-29T03:08:07.636Z,1011.39
2016-09-29T03:09:07.626Z,1011.36
2016-09-29T03:10:07.667Z,1011.41
2016-09-29T03:11:07.605Z,1011.41
2016-09-29T03:12:07.597Z,1011.4
2016-09-29T03:13:07.590Z,1011.36
2016-09-29T03:14:07.579Z,1011.32
2016-09-29T03:15:07.569Z,1011.31
2016-09-29T03:16:07.560Z,1011.3
2016-09-29T03:17:07.550Z,1011.34
2016-09-29T03:18:07.542Z,1011.32
2016-09-29T03:19:07.531Z,1011.3
2016-09-29T03:20:07.522Z,1011.29
2016-09-29T03:21:07.512Z,1011.28
2016-09-29T03:22:07.503Z,1011.25
2016-09-29T03:23:07.492Z,1011.21
2016-09-29T03:24:07.484Z,1011.25
2016-09-29T03:25:07.474Z,1011.17
2016-09-29T03:26:07.464Z,1011.21
2016-09-29T03:27:07.455Z,1011.23
2016-09-29T03:28:07.446Z,1011.22
2016-09-29T03:29:07.435Z,1011.21
2016-09-29T03:30:07.425Z,1011.17
2016-09-29T03:31:07.420Z,1011.15
2016-09-29T03:32:07.408Z,1011.21
2016-09-29T03:33:07.398Z,1011.23
2016-09-29T03:34:07.389Z,1011.14
2016-09-29T03:35:07.386Z,1011.13
2016-09-29T03:36:07.371Z,1011.17
2016-09-29T03:37:07.364Z,1011.15
2016-09-29T03:38:07.353Z,1011.15
2016-09-29T03:39:07.342Z,1011.15
2016-09-29T03:40:07.332Z,1011.15
2016-09-29T03:41:07.323Z,1011.16
2016-09-29T03:42:07.314Z,1011.1
2016-09-29T03:43:07.305Z,1011.1
2016-09-29T03:44:07.294Z,1011.12
2016-09-29T03:45:07.286Z,1011.05
2016-09-29T03:46:07.276Z,1011.07
2016-09-29T03:47:07.266Z,1011.12
2016-09-29T03:48:07.258Z,1011.08
2016-09-29T03:49:07.247Z,1010.99
2016-09-29T03:50:07.237Z,1011.05
2016-09-29T03:51:07.228Z,1011.04
2016-09-29T03:52:07.217Z,1011.03
2016-09-29T03:53:07.208Z,1011.05
2016-09-29T03:54:07.201Z,1010.95
2016-09-29T03:55:07.190Z,1011.04
2016-09-29T03:56:07.183Z,1010.97
2016-09-29T03:57:07.172Z,1010.95
2016-09-29T03:58:07.166Z,1010.97
2016-09-29T03:59:07.152Z,1010.96
2016-09-29T04:00:07.144Z,1010.98
2016-09-29T04:01:07.133Z,1010.91
2016-09-29T04:02:07.123Z,1010.86
2016-09-29T04:03:07.113Z,1010.87
2016-09-29T04:04:07.109Z,1010.85
2016-09-29T04:05:07.097Z,1010.79
2016-09-29T04:06:07.088Z,1010.74
2016-09-29T04:07:07.077Z,1010.8
2016-09-29T04:08:07.068Z,1010.77
2016-09-29T04:09:07.059Z,1010.77
2016-09-29T04:10:07.048Z,1010.75
2016-09-29T04:11:07.038Z,1010.75
2016-09-29T04:12:07.028Z,1010.75
2016-09-29T04:13:07.019Z,1010.79
2016-09-29T04:14:07.009Z,1010.76
2016-09-29T04:15:07.001Z,1010.75
2016-09-29T04:16:06.991Z,1010.75
2016-09-29T04:17:06.981Z,1010.75
2016-09-29T04:18:06.973Z,1010.64
2016-09-29T04:19:06.963Z,1010.75
2016-09-29T04:20:06.952Z,1010.7
2016-09-29T04:21:06.943Z,1010.71
2016-09-29T04:22:06.934Z,1010.68
2016-09-29T04:23:06.924Z,1010.65
2016-09-29T04:24:06.918Z,1010.65
2016-09-29T04:25:06.905Z,1010.57
2016-09-29T04:26:06.895Z,1010.56
2016-09-29T04:27:06.886Z,1010.55
2016-09-29T04:28:06.879Z,1010.53
2016-09-29T04:29:06.865Z,1010.55
2016-09-29T04:30:06.858Z,1010.54
2016-09-29T04:31:06.862Z,1010.47
2016-09-29T04:32:06.836Z,1010.48
2016-09-29T04:33:06.829Z,1010.47
2016-09-29T04:34:06.819Z,1010.48
2016-09-29T04:35:06.810Z,1010.44
2016-09-29T04:36:06.799Z,1010.52
2016-09-29T04:37:06.795Z,1010.41
2016-09-29T04:38:06.780Z,1010.41
2016-09-29T04:39:06.770Z,1010.44
2016-09-29T04:40:06.761Z,1010.37
2016-09-29T04:41:06.752Z,1010.36
2016-09-29T04:42:06.742Z,1010.33
2016-09-29T04:43:06.733Z,1010.36
2016-09-29T04:44:06.723Z,1010.34
2016-09-29T04:45:06.714Z,1010.38
2016-09-29T04:46:06.704Z,1010.36
2016-09-29T04:47:06.694Z,1010.37
2016-09-29T04:48:06.684Z,1010.26
2016-09-29T04:49:06.877Z,1010.29
2016-09-29T04:50:06.662Z,1010.32
2016-09-29T04:51:06.656Z,1010.26
2016-09-29T04:52:06.645Z,1010.25
2016-09-29T04:53:06.634Z,1010.29
2016-09-29T04:54:06.627Z,1010.26
2016-09-29T04:55:06.617Z,1010.29
2016-09-29T04:56:06.656Z,1010.29
2016-09-29T04:57:06.596Z,1010.31
2016-09-29T04:58:06.603Z,1010.28
2016-09-29T04:59:06.590Z,1010.29
2016-09-29T05:00:06.570Z,1010.26
2016-09-29T05:01:06.556Z,1010.25
2016-09-29T05:02:06.549Z,1010.19
2016-09-29T05:03:06.539Z,1010.17
2016-09-29T05:04:06.529Z,1010.15
2016-09-29T05:05:06.519Z,1010.11
2016-09-29T05:06:06.509Z,1010.06
2016-09-29T05:07:06.499Z,1010.03
2016-09-29T05:08:06.488Z,1010.07
2016-09-29T05:09:06.481Z,1010.08
2016-09-29T05:10:06.469Z,1010.04
2016-09-29T05:11:06.510Z,1010.06
2016-09-29T05:12:06.450Z,1010.05
2016-09-29T05:13:06.439Z,1010
2016-09-29T05:14:06.432Z,1010.01
2016-09-29T05:15:06.420Z,1010.03
2016-09-29T05:16:06.412Z,1010
2016-09-29T05:17:06.401Z,1010
2016-09-29T05:18:06.392Z,1010.04
2016-09-29T05:19:06.382Z,1009.99
2016-09-29T05:20:06.373Z,1010
2016-09-29T05:21:06.362Z,1009.99
2016-09-29T05:22:06.352Z,1009.95
2016-09-29T05:23:06.343Z,1009.97
2016-09-29T05:24:06.330Z,1009.98
2016-09-29T05:25:06.326Z,1010.02
2016-09-29T05:26:06.312Z,1010.02
2016-09-29T05:27:06.301Z,1009.97
2016-09-29T05:28:06.291Z,1009.96
2016-09-29T05:29:06.281Z,1009.96
2016-09-29T05:30:06.269Z,1009.96
2016-09-29T05:31:06.261Z,1009.95
2016-09-29T05:32:06.252Z,1009.92
2016-09-29T05:33:06.242Z,1009.91
2016-09-29T05:34:06.311Z,1009.91
2016-09-29T05:35:06.222Z,1009.83
2016-09-29T05:36:06.212Z,1009.85
2016-09-29T05:37:06.200Z,1009.84
2016-09-29T05:38:06.191Z,1009.8
2016-09-29T05:39:06.181Z,1009.79
2016-09-29T05:40:06.177Z,1009.82
2016-09-29T05:41:06.161Z,1009.81
2016-09-29T05:42:06.154Z,1009.83
2016-09-29T05:43:06.142Z,1009.8
2016-09-29T05:44:06.132Z,1009.83
2016-09-29T05:45:06.322Z,1009.8
2016-09-29T05:46:06.111Z,1009.79
2016-09-29T05:47:06.101Z,1009.79
2016-09-29T05:48:06.092Z,1009.79
2016-09-29T05:49:06.082Z,1009.76
2016-09-29T05:50:06.072Z,1009.79
2016-09-29T05:51:06.062Z,1009.74
2016-09-29T05:52:06.056Z,1009.73
2016-09-29T05:53:06.046Z,1009.75
2016-09-29T05:54:06.032Z,1009.74
2016-09-29T05:55:06.023Z,1009.77
2016-09-29T05:56:06.011Z,1009.76
2016-09-29T05:57:06.018Z,1009.82
2016-09-29T05:58:06.099Z,1009.78
2016-09-29T05:59:05.984Z,1009.76
2016-09-29T06:00:05.973Z,1009.7
2016-09-29T06:01:05.961Z,1009.72
2016-09-29T06:02:05.955Z,1009.77
2016-09-29T06:03:05.940Z,1009.73
2016-09-29T06:04:05.932Z,1009.72
2016-09-29T06:05:05.925Z,1009.74
2016-09-29T06:06:05.912Z,1009.7
2016-09-29T06:07:05.902Z,1009.69
2016-09-29T06:08:05.894Z,1009.64
2016-09-29T06:09:05.883Z,1009.65
2016-09-29T06:10:05.874Z,1009.69
2016-09-29T06:11:05.862Z,1009.69
2016-09-29T06:12:05.852Z,1009.64
2016-09-29T06:13:05.841Z,1009.65
2016-09-29T06:14:05.834Z,1009.66
2016-09-29T06:15:05.823Z,1009.63
2016-09-29T06:16:05.812Z,1009.66
2016-09-29T06:17:05.803Z,1009.59
2016-09-29T06:18:05.796Z,1009.58
2016-09-29T06:19:05.785Z,1009.62
2016-09-29T06:20:05.775Z,1009.63
2016-09-29T06:21:05.766Z,1009.58
2016-09-29T06:22:05.758Z,1009.57
2016-09-29T06:23:05.753Z,1009.56
2016-09-29T06:24:05.736Z,1009.57
2016-09-29T06:25:05.725Z,1009.55
2016-09-29T06:26:05.716Z,1009.57
2016-09-29T06:27:05.706Z,1009.52
2016-09-29T06:28:05.697Z,1009.57
2016-09-29T06:29:05.686Z,1009.53
2016-09-29T06:30:05.676Z,1009.49
2016-09-29T06:31:05.667Z,1009.45
2016-09-29T06:32:05.659Z,1009.47
2016-09-29T06:33:05.648Z,1009.49
2016-09-29T06:34:05.637Z,1009.49
2016-09-29T06:35:05.628Z,1009.53
2016-09-29T06:36:05.618Z,1009.47
2016-09-29T06:37:05.658Z,1009.48
2016-09-29T06:38:05.599Z,1009.5
2016-09-29T06:39:05.589Z,1009.5
2016-09-29T06:40:05.584Z,1009.49
2016-09-29T06:41:05.570Z,1009.58
2016-09-29T06:42:05.562Z,1009.6
2016-09-29T06:43:05.566Z,1009.54
2016-09-29T06:44:05.540Z,1009.52
2016-09-29T06:45:05.534Z,1009.51
2016-09-29T06:46:05.526Z,1009.55
2016-09-29T06:47:05.513Z,1009.53
2016-09-29T06:48:05.505Z,1009.49
2016-09-29T06:49:05.693Z,1009.53
2016-09-29T06:50:05.481Z,1009.51
2016-09-29T06:51:05.472Z,1009.49
2016-09-29T06:52:05.512Z,1009.46
2016-09-29T06:53:05.453Z,1009.47
2016-09-29T06:54:05.442Z,1009.51
2016-09-29T06:55:05.433Z,1009.47
2016-09-29T06:56:05.424Z,1009.46
2016-09-29T06:57:05.414Z,1009.52
2016-09-29T06:58:05.404Z,1009.48
2016-09-29T06:59:05.393Z,1009.49
2016-09-29T07:00:05.385Z,1009.44
2016-09-29T07:01:05.375Z,1009.49
2016-09-29T07:02:05.365Z,1009.49
2016-09-29T07:03:05.356Z,1009.47
2016-09-29T07:04:05.348Z,1009.49
2016-09-29T07:05:05.336Z,1009.47
2016-09-29T07:06:05.328Z,1009.5
2016-09-29T07:07:05.335Z,1009.42
2016-09-29T07:08:05.312Z,1009.43
2016-09-29T07:09:05.300Z,1009.41
2016-09-29T07:10:05.291Z,1009.42
2016-09-29T07:11:05.281Z,1009.39
2016-09-29T07:12:05.272Z,1009.4
2016-09-29T07:13:05.266Z,1009.43
2016-09-29T07:14:05.253Z,1009.45
2016-09-29T07:15:05.248Z,1009.48
2016-09-29T07:16:05.234Z,1009.4
2016-09-29T07:17:05.226Z,1009.41
2016-09-29T07:18:05.216Z,1009.39
2016-09-29T07:19:05.208Z,1009.41
2016-09-29T07:20:05.198Z,1009.4
2016-09-29T07:21:05.191Z,1009.34
2016-09-29T07:22:05.181Z,1009.41
2016-09-29T07:23:05.169Z,1009.38
2016-09-29T07:24:05.162Z,1009.43
2016-09-29T07:25:05.153Z,1009.44
2016-09-29T07:26:05.151Z,1009.39
2016-09-29T07:27:05.135Z,1009.36
2016-09-29T07:28:05.126Z,1009.3
2016-09-29T07:29:05.117Z,1009.29
2016-09-29T07:30:05.109Z,1009.25
2016-09-29T07:31:05.099Z,1009.29
2016-09-29T07:32:05.091Z,1009.28
2016-09-29T07:33:05.083Z,1009.35
2016-09-29T07:34:05.072Z,1009.27
2016-09-29T07:35:05.064Z,1009.3
2016-09-29T07:36:05.058Z,1009.3
2016-09-29T07:37:05.047Z,1009.32
2016-09-29T07:38:05.039Z,1009.26
2016-09-29T07:39:05.030Z,1009.34
2016-09-29T07:40:05.021Z,1009.35
2016-09-29T07:41:05.011Z,1009.25
2016-09-29T07:42:05.006Z,1009.29
2016-09-29T07:43:04.995Z,1009.25
2016-09-29T07:44:04.986Z,1009.23
2016-09-29T07:45:04.977Z,1009.2
2016-09-29T07:46:04.969Z,1009.17
2016-09-29T07:47:04.961Z,1009.17
2016-09-29T07:48:04.954Z,1009.2
2016-09-29T07:49:04.944Z,1009.24
2016-09-29T07:50:04.935Z,1009.16
2016-09-29T07:51:04.927Z,1009.22
2016-09-29T07:52:04.919Z,1009.15
2016-09-29T07:53:04.912Z,1009.14
2016-09-29T07:54:04.903Z,1009.16
2016-09-29T07:55:04.894Z,1009.09
2016-09-29T07:56:04.885Z,1009.13
2016-09-29T07:57:04.878Z,1009.12
2016-09-29T07:58:04.870Z,1009.1
2016-09-29T07:59:04.865Z,1009.09
2016-09-29T08:00:04.853Z,1009.02
2016-09-29T08:01:04.846Z,1009.02
2016-09-29T08:02:04.834Z,1009
2016-09-29T08:03:04.829Z,1009.08
2016-09-29T08:04:04.816Z,1009.03
2016-09-29T08:05:04.809Z,1009
2016-09-29T08:06:04.807Z,1008.97
2016-09-29T08:07:04.794Z,1008.93
2016-09-29T08:08:04.783Z,1008.95
2016-09-29T08:09:04.776Z,1008.93
2016-09-29T08:10:04.767Z,1008.9
2016-09-29T08:11:04.757Z,1008.99
2016-09-29T08:12:04.750Z,1008.89
2016-09-29T08:13:04.742Z,1008.86
2016-09-29T08:14:04.735Z,1008.89
2016-09-29T08:15:04.725Z,1008.88
2016-09-29T08:16:04.729Z,1008.77
2016-09-29T08:17:04.710Z,1008.8
2016-09-29T08:18:04.703Z,1008.85
2016-09-29T08:19:04.691Z,1008.86
2016-09-29T08:20:04.684Z,1008.83
2016-09-29T08:21:04.676Z,1008.83
2016-09-29T08:22:04.666Z,1008.79
2016-09-29T08:23:04.659Z,1008.77
2016-09-29T08:24:04.650Z,1008.94
2016-09-29T08:25:04.641Z,1008.75
2016-09-29T08:26:04.634Z,1008.75
2016-09-29T08:27:04.626Z,1008.74
2016-09-29T08:28:04.617Z,1008.76
2016-09-29T08:29:04.610Z,1008.75
2016-09-29T08:30:04.600Z,1008.68
2016-09-29T08:31:04.598Z,1008.74
2016-09-29T08:32:04.583Z,1008.69
2016-09-29T08:33:04.576Z,1008.59
2016-09-29T08:34:04.568Z,1008.68
2016-09-29T08:35:04.560Z,1008.6
2016-09-29T08:36:04.550Z,1008.58
2016-09-29T08:37:04.545Z,1008.58
2016-09-29T08:38:04.535Z,1008.53
2016-09-29T08:39:04.528Z,1008.58
2016-09-29T08:40:04.520Z,1008.54
2016-09-29T08:41:04.508Z,1008.49
2016-09-29T08:42:04.503Z,1008.52
2016-09-29T08:43:04.496Z,1008.47
2016-09-29T08:44:04.486Z,1008.4
2016-09-29T08:45:04.480Z,1008.42
2016-09-29T08:46:04.470Z,1008.38
2016-09-29T08:47:04.468Z,1008.37
2016-09-29T08:48:04.454Z,1008.42
2016-09-29T08:49:04.649Z,1008.37
2016-09-29T08:50:04.444Z,1008.43
2016-09-29T08:51:04.432Z,1008.43
2016-09-29T08:52:04.424Z,1008.38
2016-09-29T08:53:04.414Z,1008.37
2016-09-29T08:54:04.408Z,1008.32
2016-09-29T08:55:04.398Z,1008.3
2016-09-29T08:56:04.393Z,1008.24
2016-09-29T08:57:04.386Z,1008.23
2016-09-29T08:58:04.375Z,1008.3
2016-09-29T08:59:04.367Z,1008.29
2016-09-29T09:00:04.360Z,1008.29
2016-09-29T09:01:04.351Z,1008.22
2016-09-29T09:02:04.578Z,1008.2
2016-09-29T09:03:04.376Z,1008.22
2016-09-29T09:04:04.355Z,1008.18
2016-09-29T09:05:04.348Z,1008.24
2016-09-29T09:06:04.326Z,1008.22
2016-09-29T09:07:04.522Z,1008.28
2016-09-29T09:08:04.296Z,1008.14
2016-09-29T09:09:04.289Z,1008.04
2016-09-29T09:10:04.282Z,1008.11
2016-09-29T09:11:04.274Z,1008.11
2016-09-29T09:12:04.267Z,1008.12
2016-09-29T09:13:04.258Z,1008.06
2016-09-29T09:14:04.250Z,1008.07
2016-09-29T09:15:04.243Z,1008.23
2016-09-29T09:16:04.234Z,1007.97
2016-09-29T09:17:04.226Z,1008.05
2016-09-29T09:18:04.222Z,1008.05
2016-09-29T09:19:04.216Z,1007.93
2016-09-29T09:20:04.204Z,1007.82
2016-09-29T09:21:04.198Z,1007.84
2016-09-29T09:22:04.214Z,1007.91
2016-09-29T09:23:04.180Z,1007.75
2016-09-29T09:24:04.170Z,1007.81
2016-09-29T09:25:04.164Z,1007.8
2016-09-29T09:26:04.155Z,1007.93
2016-09-29T09:27:04.149Z,1007.92
2016-09-29T09:28:04.144Z,1007.95
2016-09-29T09:29:04.157Z,1007.91
2016-09-29T09:30:04.124Z,1007.82
2016-09-29T09:31:04.183Z,1007.78
2016-09-29T09:32:04.113Z,1007.84
2016-09-29T09:33:04.111Z,1007.72
2016-09-29T09:34:04.094Z,1007.86
2016-09-29T09:35:04.088Z,1007.84
2016-09-29T09:36:04.098Z,1007.84
2016-09-29T09:37:04.071Z,1007.87
2016-09-29T09:38:04.088Z,1007.8
2016-09-29T09:39:04.054Z,1007.89
2016-09-29T09:40:04.069Z,1007.83
2016-09-29T09:41:04.039Z,1007.67
2016-09-29T09:42:04.074Z,1007.82
2016-09-29T09:43:04.023Z,1007.82
2016-09-29T09:44:04.015Z,1007.69
2016-09-29T09:45:04.008Z,1007.65
2016-09-29T09:46:03.999Z,1007.73
2016-09-29T09:47:04.000Z,1007.72
2016-09-29T09:48:04.005Z,1007.69
2016-09-29T09:49:03.977Z,1007.74
2016-09-29T09:50:03.968Z,1007.71
2016-09-29T09:51:03.961Z,1007.74
2016-09-29T09:52:03.953Z,1007.77
2016-09-29T09:53:03.944Z,1007.73
2016-09-29T09:54:03.964Z,1007.81
2016-09-29T09:55:03.930Z,1007.64
2016-09-29T09:56:03.923Z,1007.61
2016-09-29T09:57:03.914Z,1007.61
2016-09-29T09:58:03.907Z,1007.66
2016-09-29T09:59:03.901Z,1007.59
2016-09-29T10:00:03.893Z,1007.57
2016-09-29T10:01:03.885Z,1007.53
2016-09-29T10:02:03.880Z,1007.64
2016-09-29T10:03:03.876Z,1007.58
2016-09-29T10:04:03.867Z,1007.67
2016-09-29T10:05:03.857Z,1007.57
2016-09-29T10:06:03.849Z,1007.61
2016-09-29T10:07:03.844Z,1007.56
2016-09-29T10:08:03.836Z,1007.57
2016-09-29T10:09:03.830Z,1007.56
2016-09-29T10:10:03.823Z,1007.48
2016-09-29T10:11:03.813Z,1007.42
2016-09-29T10:12:03.807Z,1007.41
2016-09-29T10:13:03.819Z,1007.43
2016-09-29T10:14:03.795Z,1007.37
2016-09-29T10:15:03.787Z,1007.46
2016-09-29T10:16:03.783Z,1007.46
2016-09-29T10:17:03.773Z,1007.35
2016-09-29T10:18:03.768Z,1007.37
2016-09-29T10:19:03.758Z,1007.23
2016-09-29T10:20:03.752Z,1007.3
2016-09-29T10:21:03.747Z,1007.33
2016-09-29T10:22:03.739Z,1007.32
2016-09-29T10:23:03.731Z,1007.3
2016-09-29T10:24:03.726Z,1007.34
2016-09-29T10:25:03.718Z,1007.32
2016-09-29T10:26:03.711Z,1007.22
2016-09-29T10:27:03.705Z,1007.27
2016-09-29T10:28:03.697Z,1007.27
2016-09-29T10:29:03.693Z,1007.39
2016-09-29T10:30:03.683Z,1007.23
2016-09-29T10:31:03.677Z,1007.29
2016-09-29T10:32:03.673Z,1007.22
2016-09-29T10:33:03.663Z,1007.18
2016-09-29T10:34:03.657Z,1007.27
2016-09-29T10:35:03.649Z,1007.17
2016-09-29T10:36:03.646Z,1007.14
2016-09-29T10:37:03.636Z,1007.11
2016-09-29T10:38:03.628Z,1007.05
2016-09-29T10:39:03.625Z,1007.13
2016-09-29T10:40:03.617Z,1007.11
2016-09-29T10:41:03.608Z,1007.08
2016-09-29T10:42:03.602Z,1007.1
2016-09-29T10:43:03.601Z,1007.06
2016-09-29T10:44:03.590Z,1007.08
2016-09-29T10:45:03.591Z,1007.04
2016-09-29T10:46:03.579Z,1007.14
2016-09-29T10:47:03.571Z,1007.12
2016-09-29T10:48:03.564Z,1007.11
2016-09-29T10:49:03.762Z,1007.16
2016-09-29T10:50:03.552Z,1007.14
2016-09-29T10:51:03.548Z,1007.13
2016-09-29T10:52:03.539Z,1007.12
2016-09-29T10:53:03.534Z,1007.11
2016-09-29T10:54:03.529Z,1007.13
2016-09-29T10:55:03.522Z,1007.18
2016-09-29T10:56:03.517Z,1007.15
2016-09-29T10:57:03.512Z,1007.29
2016-09-29T10:58:03.504Z,1007.05
2016-09-29T10:59:03.499Z,1007.09
2016-09-29T11:00:03.494Z,1006.97
2016-09-29T11:01:03.487Z,1007.14
2016-09-29T11:02:03.482Z,1007
2016-09-29T11:03:03.477Z,1007.3
2016-09-29T11:04:03.631Z,1007.13
2016-09-29T11:05:03.466Z,1006.96
2016-09-29T11:06:03.459Z,1006.97
2016-09-29T11:07:03.452Z,1006.99
2016-09-29T11:08:03.448Z,1007
2016-09-29T11:09:03.443Z,1007
2016-09-29T11:10:03.437Z,1006.92
2016-09-29T11:11:03.428Z,1006.93
2016-09-29T11:12:03.423Z,1007.03
2016-09-29T11:13:03.418Z,1007
2016-09-29T11:14:03.410Z,1006.97
2016-09-29T11:15:03.405Z,1006.83
2016-09-29T11:16:03.398Z,1006.81
2016-09-29T11:17:03.395Z,1006.9
2016-09-29T11:18:03.388Z,1006.71
2016-09-29T11:19:03.387Z,1006.74
2016-09-29T11:20:03.376Z,1006.71
2016-09-29T11:21:03.369Z,1006.78
2016-09-29T11:22:03.365Z,1006.69
2016-09-29T11:23:03.359Z,1006.71
2016-09-29T11:24:03.352Z,1006.88
2016-09-29T11:25:03.347Z,1006.66
2016-09-29T11:26:03.341Z,1006.74
2016-09-29T11:27:03.338Z,1006.68
2016-09-29T11:28:03.336Z,1006.64
2016-09-29T11:29:03.327Z,1006.69
2016-09-29T11:30:03.319Z,1006.69
2016-09-29T11:31:03.315Z,1006.78
2016-09-29T11:32:03.330Z,1006.75
2016-09-29T11:33:03.304Z,1006.68
2016-09-29T11:34:03.301Z,1006.61
2016-09-29T11:35:03.295Z,1006.7
2016-09-29T11:36:03.292Z,1006.68
2016-09-29T11:37:03.298Z,1006.72
2016-09-29T11:38:03.280Z,1006.62
2016-09-29T11:39:03.276Z,1006.67
2016-09-29T11:40:03.271Z,1006.58
2016-09-29T11:41:03.268Z,1006.67
2016-09-29T11:42:03.264Z,1006.62
2016-09-29T11:43:03.257Z,1006.73
2016-09-29T11:44:03.252Z,1006.7
2016-09-29T11:45:03.251Z,1006.7
2016-09-29T11:46:03.246Z,1006.62
2016-09-29T11:47:03.243Z,1006.62
2016-09-29T11:48:03.241Z,1006.66
2016-09-29T11:49:03.241Z,1006.58
2016-09-29T11:50:03.241Z,1006.56
2016-09-29T11:51:03.235Z,1006.42
2016-09-29T11:52:03.224Z,1006.51
2016-09-29T11:53:03.222Z,1006.59
2016-09-29T11:54:03.218Z,1006.48
2016-09-29T11:55:03.220Z,1006.48
2016-09-29T11:56:03.213Z,1006.62
2016-09-29T11:57:03.218Z,1006.49
2016-09-29T11:58:03.211Z,1006.43
2016-09-29T11:59:03.211Z,1006.45
2016-09-29T12:00:03.202Z,1006.42
2016-09-29T12:01:03.199Z,1006.41
2016-09-29T12:02:03.198Z,1006.34
2016-09-29T12:03:03.191Z,1006.41
2016-09-29T12:04:03.187Z,1006.34
2016-09-29T12:05:03.184Z,1006.29
2016-09-29T12:06:03.181Z,1006.37
2016-09-29T12:07:03.178Z,1006.27
2016-09-29T12:08:03.178Z,1006.29